Time;durP1;ratioP1;P1;durP2;ratioP2;P2;SDS_P1;SDS_P2;PMS_P1;PMS_P2;Temp;Humidity;BMP_temperature;BMP_pressure;BME280_temperature;BME280_humidity;BME280_pressure;Samples;Min_cycle;Max_cycle;Signal;HPM_P1;HPM_P2
2023/06/10 00:01:48;;;;;;;5.05;3.00;;;23.90;54.50;;;;;;5073155;28;20040;-61
2023/06/10 00:04:16;;;;;;;3.90;2.47;;;23.90;54.50;;;;;;5072468;28;20483;-61
2023/06/10 00:06:41;;;;;;;4.00;2.47;;;23.90;54.60;;;;;;5072484;28;20048;-62
2023/06/10 00:09:14;;;;;;;3.97;2.58;;;23.90;54.60;;;;;;5072703;28;20310;-61
2023/06/10 00:11:40;;;;;;;4.30;2.55;;;23.90;54.60;;;;;;5072861;28;20487;-62
2023/06/10 00:14:05;;;;;;;4.38;2.63;;;23.90;54.50;;;;;;5072291;28;20055;-61
2023/06/10 00:16:31;;;;;;;4.43;2.53;;;23.90;54.60;;;;;;5073004;28;20044;-61
2023/06/10 00:19:00;;;;;;;3.85;2.40;;;23.90;54.60;;;;;;5072964;28;20098;-61
2023/06/10 00:21:30;;;;;;;3.83;2.42;;;23.90;54.60;;;;;;5071635;28;20553;-61
2023/06/10 00:23:55;;;;;;;4.03;2.47;;;23.90;54.60;;;;;;5073103;28;20044;-62
2023/06/10 00:26:22;;;;;;;4.10;2.60;;;23.90;54.60;;;;;;5072411;28;20040;-61
2023/06/10 00:28:48;;;;;;;4.20;2.47;;;23.90;54.70;;;;;;5071812;28;20052;-61
2023/06/10 00:31:14;;;;;;;3.67;2.53;;;23.80;54.60;;;;;;5072246;28;20169;-62
2023/06/10 00:33:39;;;;;;;3.90;2.50;;;23.80;54.60;;;;;;5072014;28;20052;-62
2023/06/10 00:36:05;;;;;;;4.60;2.70;;;23.90;54.70;;;;;;5072911;28;20040;-62
2023/06/10 00:38:31;;;;;;;4.13;2.63;;;23.80;54.60;;;;;;5072532;28;20553;-62
2023/06/10 00:40:57;;;;;;;4.63;2.65;;;23.80;54.60;;;;;;5071931;28;20051;-61
2023/06/10 00:43:22;;;;;;;3.67;2.10;;;23.80;54.70;;;;;;5071017;28;20041;-61
2023/06/10 00:45:48;;;;;;;4.03;2.60;;;23.80;54.60;;;;;;5072339;28;20075;-61
2023/06/10 00:48:13;;;;;;;4.45;2.50;;;23.80;54.60;;;;;;5070473;28;20479;-61
2023/06/10 00:50:39;;;;;;;4.45;2.47;;;23.80;54.60;;;;;;5071545;28;20127;-61
2023/06/10 00:53:05;;;;;;;4.07;2.65;;;23.80;54.60;;;;;;5072592;28;20093;-61
2023/06/10 00:55:32;;;;;;;4.78;2.72;;;23.80;54.60;;;;;;5071837;28;20041;-62
2023/06/10 00:57:58;;;;;;;4.03;2.88;;;23.80;54.50;;;;;;5072642;28;20048;-61
2023/06/10 01:00:23;;;;;;;4.13;2.20;;;23.80;54.50;;;;;;5072273;28;20045;-61
2023/06/10 01:02:49;;;;;;;4.47;2.72;;;23.80;54.50;;;;;;5071693;28;20075;-61
2023/06/10 01:05:14;;;;;;;4.13;2.30;;;23.80;54.50;;;;;;5070949;28;20041;-61
2023/06/10 01:07:46;;;;;;;5.53;2.70;;;23.80;54.60;;;;;;5071367;28;20052;-61
2023/06/10 01:10:18;;;;;;;4.30;2.63;;;23.80;54.60;;;;;;5071188;28;20508;-61
2023/06/10 01:12:59;;;;;;;4.15;2.70;;;23.70;54.50;;;;;;5070964;28;20092;-62
2023/06/10 01:15:25;;;;;;;5.35;3.00;;;23.70;54.40;;;;;;5072190;28;20043;-61
2023/06/10 01:17:55;;;;;;;4.55;2.65;;;23.70;54.40;;;;;;5070530;28;20044;-62
2023/06/10 01:20:20;;;;;;;5.40;2.65;;;23.70;54.40;;;;;;5070891;28;20040;-61
2023/06/10 01:22:47;;;;;;;3.97;2.65;;;23.70;55.00;;;;;;5075800;28;20484;-61
2023/06/10 01:25:13;;;;;;;4.93;2.78;;;23.70;54.30;;;;;;5075180;28;20040;-62
2023/06/10 01:27:39;;;;;;;4.80;2.42;;;23.70;54.30;;;;;;5074285;28;20079;-62
2023/06/10 01:30:15;;;;;;;7.03;2.97;;;23.70;54.40;;;;;;5074144;28;20045;-61
2023/06/10 01:32:44;;;;;;;4.45;2.70;;;23.70;54.30;;;;;;5074564;28;20072;-61
2023/06/10 01:35:10;;;;;;;4.65;2.63;;;23.70;54.30;;;;;;5074514;28;20484;-61
2023/06/10 01:37:35;;;;;;;4.18;2.70;;;23.70;54.30;;;;;;5073715;28;20097;-61
2023/06/10 01:40:05;;;;;;;6.30;2.92;;;23.70;54.30;;;;;;5074163;28;20044;-61
2023/06/10 01:42:31;;;;;;;5.30;2.63;;;23.70;54.30;;;;;;5075784;28;20048;-61
2023/06/10 01:44:57;;;;;;;4.70;2.65;;;23.70;54.30;;;;;;5073720;28;20037;-61
2023/06/10 01:47:23;;;;;;;5.68;2.78;;;23.70;54.30;;;;;;5074133;28;20044;-61
2023/06/10 01:49:48;;;;;;;5.28;2.90;;;23.70;54.20;;;;;;5075689;28;20396;-61
2023/06/10 01:52:14;;;;;;;4.28;2.78;;;23.70;54.20;;;;;;5074334;28;20048;-62
2023/06/10 01:54:39;;;;;;;4.50;2.70;;;23.70;54.20;;;;;;5075280;28;20044;-61
2023/06/10 01:57:06;;;;;;;6.50;2.63;;;23.60;54.10;;;;;;5075187;28;20047;-61
2023/06/10 01:59:31;;;;;;;6.20;2.85;;;23.70;54.10;;;;;;5075034;28;20048;-61
2023/06/10 02:01:57;;;;;;;5.88;2.70;;;23.60;54.10;;;;;;5075169;28;20124;-61
2023/06/10 02:04:22;;;;;;;4.85;2.75;;;23.60;54.10;;;;;;5074983;28;20408;-62
2023/06/10 02:06:48;;;;;;;4.50;2.67;;;23.60;54.10;;;;;;5072783;28;20062;-61
2023/06/10 02:09:13;;;;;;;4.65;2.70;;;23.60;54.10;;;;;;5074736;28;20048;-61
2023/06/10 02:11:39;;;;;;;5.97;2.80;;;23.60;54.00;;;;;;5073825;28;20086;-61
2023/06/10 02:14:05;;;;;;;4.88;2.97;;;23.60;54.00;;;;;;5074421;28;20044;-61
2023/06/10 02:16:31;;;;;;;4.32;2.80;;;23.60;54.10;;;;;;5074844;28;20127;-61
2023/06/10 02:18:56;;;;;;;4.63;2.78;;;23.60;54.00;;;;;;5074882;28;20075;-62
2023/06/10 02:21:22;;;;;;;5.32;2.60;;;23.60;54.00;;;;;;5073866;28;20044;-62
2023/06/10 02:23:47;;;;;;;4.95;2.72;;;23.60;54.00;;;;;;5074668;28;20044;-62
2023/06/10 02:26:13;;;;;;;4.88;2.83;;;23.60;54.10;;;;;;5073932;28;20071;-61
2023/06/10 02:28:43;;;;;;;4.55;2.80;;;23.60;54.10;;;;;;5074550;28;20052;-62
2023/06/10 02:31:09;;;;;;;5.07;3.00;;;23.60;54.10;;;;;;5073294;28;20044;-61
2023/06/10 02:33:34;;;;;;;5.00;2.67;;;23.60;54.10;;;;;;5073461;28;20051;-61
2023/06/10 02:36:00;;;;;;;5.25;2.58;;;23.60;54.00;;;;;;5073653;28;20557;-61
2023/06/10 02:38:26;;;;;;;3.97;2.40;;;23.60;54.10;;;;;;5074183;28;20523;-61
2023/06/10 02:40:51;;;;;;;5.05;2.90;;;23.60;54.00;;;;;;5073602;28;20403;-61
2023/06/10 02:43:17;;;;;;;6.40;2.67;;;23.60;54.00;;;;;;5074175;28;20049;-61
2023/06/10 02:45:42;;;;;;;6.38;2.85;;;23.50;54.00;;;;;;5074652;28;20044;-62
2023/06/10 02:48:08;;;;;;;3.60;2.35;;;23.60;54.10;;;;;;5073338;28;20389;-61
2023/06/10 02:50:33;;;;;;;4.22;2.83;;;23.50;54.00;;;;;;5074376;28;20056;-61
2023/06/10 02:52:59;;;;;;;5.35;3.03;;;23.50;54.00;;;;;;5074333;28;20583;-62
2023/06/10 02:55:26;;;;;;;4.93;2.42;;;23.50;54.10;;;;;;5073263;28;20044;-61
2023/06/10 02:57:53;;;;;;;3.97;2.33;;;23.50;54.00;;;;;;5073206;28;20048;-61
2023/06/10 03:00:20;;;;;;;4.55;2.85;;;23.50;54.10;;;;;;5074111;28;20040;-61
2023/06/10 03:02:45;;;;;;;4.38;2.75;;;23.50;54.10;;;;;;5073432;28;20067;-61
2023/06/10 03:05:12;;;;;;;4.88;3.10;;;23.50;54.00;;;;;;5073805;28;20496;-61
2023/06/10 03:07:38;;;;;;;5.90;2.80;;;23.50;54.00;;;;;;5073866;28;20390;-62
2023/06/10 03:10:05;;;;;;;6.07;2.80;;;23.50;54.00;;;;;;5073247;28;20574;-61
2023/06/10 03:12:31;;;;;;;5.05;2.75;;;23.50;54.00;;;;;;5073672;28;20400;-62
2023/06/10 03:14:56;;;;;;;4.63;2.97;;;23.50;54.00;;;;;;5073872;28;20040;-61
2023/06/10 03:17:22;;;;;;;4.70;2.70;;;23.50;54.00;;;;;;5072929;28;20127;-61
2023/06/10 03:19:47;;;;;;;5.90;2.65;;;23.50;54.00;;;;;;5073836;28;20127;-61
2023/06/10 03:22:14;;;;;;;5.53;2.80;;;23.50;54.00;;;;;;5073163;28;20127;-61
2023/06/10 03:24:40;;;;;;;5.45;3.05;;;23.50;54.00;;;;;;5071665;28;20044;-62
2023/06/10 03:27:07;;;;;;;5.70;3.10;;;23.50;54.00;;;;;;5071674;28;20183;-61
2023/06/10 03:29:33;;;;;;;5.43;2.90;;;23.50;53.90;;;;;;5072964;28;20041;-62
2023/06/10 03:31:58;;;;;;;6.05;2.83;;;23.50;54.00;;;;;;5073314;28;20040;-62
2023/06/10 03:34:24;;;;;;;4.03;2.55;;;23.50;53.90;;;;;;5073067;28;20045;-61
2023/06/10 03:36:50;;;;;;;4.18;2.80;;;23.50;53.90;;;;;;5072606;28;20124;-62
2023/06/10 03:39:15;;;;;;;5.47;2.70;;;23.40;53.80;;;;;;5073201;28;20040;-62
2023/06/10 03:41:41;;;;;;;3.67;2.38;;;23.40;53.80;;;;;;5073305;28;20053;-61
2023/06/10 03:44:07;;;;;;;5.75;3.00;;;23.40;53.90;;;;;;5071686;28;20059;-61
2023/06/10 03:46:32;;;;;;;4.20;2.50;;;23.40;53.80;;;;;;5073478;28;20048;-61
2023/06/10 03:49:00;;;;;;;6.68;3.00;;;23.40;53.80;;;;;;5073195;28;20048;-62
2023/06/10 03:51:26;;;;;;;4.18;2.85;;;23.40;53.80;;;;;;5072267;28;20044;-61
2023/06/10 03:53:51;;;;;;;5.80;3.03;;;23.40;53.80;;;;;;5072958;28;20055;-61
2023/06/10 03:56:17;;;;;;;4.70;2.90;;;23.40;53.80;;;;;;5072807;28;20033;-61
2023/06/10 03:58:43;;;;;;;4.80;2.70;;;23.40;53.80;;;;;;5072458;28;20048;-61
2023/06/10 04:01:08;;;;;;;5.13;3.05;;;23.40;53.80;;;;;;5065370;28;20075;-61
2023/06/10 04:03:34;;;;;;;4.90;2.85;;;23.40;53.80;;;;;;5067967;28;20040;-62
2023/06/10 04:06:00;;;;;;;3.95;2.50;;;23.40;53.80;;;;;;5071215;28;20040;-61
2023/06/10 04:08:25;;;;;;;5.30;2.63;;;23.40;53.80;;;;;;5071179;28;20048;-62
2023/06/10 04:10:51;;;;;;;4.57;2.80;;;23.30;53.80;;;;;;5072948;28;20045;-61
2023/06/10 04:13:17;;;;;;;5.13;2.85;;;23.40;53.90;;;;;;5071869;28;20040;-62
2023/06/10 04:15:42;;;;;;;6.15;2.80;;;23.40;53.80;;;;;;5072698;28;20356;-62
2023/06/10 04:18:08;;;;;;;4.57;2.40;;;23.40;53.90;;;;;;5072717;28;20041;-62
2023/06/10 04:20:33;;;;;;;5.22;2.55;;;23.30;53.80;;;;;;5072190;28;20286;-62
2023/06/10 04:22:59;;;;;;;5.15;2.95;;;23.40;53.90;;;;;;5072723;28;20040;-62
2023/06/10 04:25:26;;;;;;;4.55;2.50;;;23.40;53.90;;;;;;5072475;28;20389;-62
2023/06/10 04:27:51;;;;;;;4.63;2.53;;;23.30;53.90;;;;;;5071725;28;20052;-62
2023/06/10 04:30:17;;;;;;;4.43;2.40;;;23.30;53.80;;;;;;5071457;28;20047;-61
2023/06/10 04:32:43;;;;;;;4.30;2.42;;;23.40;53.90;;;;;;5072350;28;20045;-61
2023/06/10 04:35:11;;;;;;;4.88;2.90;;;23.40;53.90;;;;;;5072165;28;20045;-61
2023/06/10 04:37:37;;;;;;;5.00;2.80;;;23.30;53.80;;;;;;5072808;28;20041;-61
2023/06/10 04:40:03;;;;;;;4.88;2.58;;;23.40;53.90;;;;;;5070649;28;20102;-61
2023/06/10 04:42:28;;;;;;;5.57;2.65;;;23.30;53.90;;;;;;5072538;28;20041;-62
2023/06/10 04:44:54;;;;;;;5.22;2.60;;;23.30;53.90;;;;;;5072529;28;20068;-62
2023/06/10 04:47:20;;;;;;;5.22;2.97;;;23.30;53.90;;;;;;5071370;28;20094;-62
2023/06/10 04:49:45;;;;;;;4.10;2.55;;;23.30;53.90;;;;;;5072697;28;20072;-62
2023/06/10 04:52:11;;;;;;;4.28;2.72;;;23.40;54.00;;;;;;5072247;28;20549;-61
2023/06/10 04:54:36;;;;;;;3.67;2.35;;;23.40;54.00;;;;;;5071661;28;20041;-61
2023/06/10 04:57:02;;;;;;;4.20;2.60;;;23.30;54.00;;;;;;5076615;28;20533;-61
2023/06/10 04:59:28;;;;;;;3.78;2.70;;;23.40;54.10;;;;;;5076392;28;20599;-61
2023/06/10 05:01:54;;;;;;;4.90;2.30;;;23.30;54.10;;;;;;5075799;28;20100;-61
2023/06/10 05:04:20;;;;;;;5.80;2.88;;;23.30;54.20;;;;;;5075824;28;20377;-61
2023/06/10 05:06:45;;;;;;;4.68;2.53;;;23.30;54.10;;;;;;5075292;28;20044;-62
2023/06/10 05:09:11;;;;;;;4.30;2.70;;;23.30;54.20;;;;;;5075371;28;20374;-61
2023/06/10 05:11:36;;;;;;;5.10;2.88;;;23.30;54.20;;;;;;5076107;28;20048;-64
2023/06/10 05:14:02;;;;;;;3.75;2.55;;;23.30;54.30;;;;;;5076242;28;20044;-62
2023/06/10 05:16:28;;;;;;;4.70;2.67;;;23.30;54.30;;;;;;5075265;28;20041;-62
2023/06/10 05:18:53;;;;;;;5.15;2.72;;;23.30;54.40;;;;;;5076202;28;20049;-62
2023/06/10 05:21:19;;;;;;;3.75;2.45;;;23.30;54.40;;;;;;5075816;28;20111;-62
2023/06/10 05:23:44;;;;;;;3.95;2.60;;;23.30;54.40;;;;;;5075435;28;20465;-62
2023/06/10 05:26:10;;;;;;;4.50;2.10;;;23.30;54.40;;;;;;5075755;28;20117;-60
2023/06/10 05:28:36;;;;;;;5.40;2.70;;;23.30;54.40;;;;;;5075641;28;20052;-60
2023/06/10 05:31:01;;;;;;;5.57;2.80;;;23.30;54.40;;;;;;5075091;28;20052;-60
2023/06/10 05:33:27;;;;;;;4.22;2.58;;;23.30;54.40;;;;;;5073955;28;20044;-62
2023/06/10 05:35:52;;;;;;;5.00;2.50;;;23.40;54.40;;;;;;5075975;28;20048;-62
2023/06/10 05:38:18;;;;;;;4.97;2.63;;;23.30;54.40;;;;;;5073330;28;20101;-62
2023/06/10 05:40:43;;;;;;;5.22;2.45;;;23.30;54.30;;;;;;5075589;28;20128;-62
2023/06/10 05:43:09;;;;;;;4.80;2.50;;;23.30;54.20;;;;;;5074331;28;20110;-62
2023/06/10 05:45:35;;;;;;;5.95;2.67;;;23.40;54.20;;;;;;5075758;28;20047;-62
2023/06/10 05:48:00;;;;;;;3.90;2.25;;;23.30;54.20;;;;;;5075597;28;20400;-62
2023/06/10 05:50:26;;;;;;;4.07;2.30;;;23.40;54.20;;;;;;5074628;28;20155;-62
2023/06/10 05:52:53;;;;;;;5.25;3.05;;;23.40;54.00;;;;;;5075390;28;20087;-62
2023/06/10 05:55:19;;;;;;;3.73;2.23;;;23.40;54.00;;;;;;5073715;28;20059;-62
2023/06/10 05:57:44;;;;;;;6.10;2.53;;;23.40;54.00;;;;;;5074691;28;20310;-62
2023/06/10 06:00:11;;;;;;;4.25;2.55;;;23.40;54.00;;;;;;5075090;28;20033;-62
2023/06/10 06:02:36;;;;;;;4.28;2.20;;;23.40;54.60;;;;;;5075410;28;20036;-62
2023/06/10 06:05:02;;;;;;;5.43;2.30;;;23.40;54.00;;;;;;5074781;28;20391;-62
2023/06/10 06:07:27;;;;;;;3.65;2.30;;;23.40;54.00;;;;;;5074090;28;20044;-62
2023/06/10 06:09:53;;;;;;;4.35;2.70;;;23.40;54.00;;;;;;5075272;28;20111;-62
2023/06/10 06:12:18;;;;;;;6.45;2.75;;;23.40;54.00;;;;;;5073871;28;20040;-62
2023/06/10 06:14:44;;;;;;;4.03;2.30;;;23.40;53.90;;;;;;5075013;28;20147;-62
2023/06/10 06:17:10;;;;;;;4.13;2.40;;;23.40;54.00;;;;;;5074877;28;20045;-62
2023/06/10 06:19:35;;;;;;;4.72;2.60;;;23.40;54.00;;;;;;5074373;28;20480;-62
2023/06/10 06:22:01;;;;;;;5.03;2.47;;;23.40;54.00;;;;;;5073639;28;20037;-62
2023/06/10 06:24:26;;;;;;;4.43;2.25;;;23.40;54.10;;;;;;5074780;28;20037;-62
2023/06/10 06:26:52;;;;;;;4.78;2.60;;;23.40;54.20;;;;;;5073950;28;20385;-62
2023/06/10 06:29:18;;;;;;;4.80;2.40;;;23.40;54.00;;;;;;5074467;28;20135;-62
2023/06/10 06:31:43;;;;;;;3.80;2.30;;;23.40;54.00;;;;;;5074820;28;20064;-62
2023/06/10 06:34:09;;;;;;;3.78;2.20;;;23.40;54.00;;;;;;5072284;28;20044;-62
2023/06/10 06:36:35;;;;;;;3.97;2.30;;;23.40;54.00;;;;;;5074872;28;20048;-62
2023/06/10 06:39:01;;;;;;;4.10;2.30;;;23.40;54.00;;;;;;5074597;28;20041;-62
2023/06/10 06:41:27;;;;;;;4.05;2.25;;;23.40;54.00;;;;;;5073515;28;20040;-62
2023/06/10 06:43:54;;;;;;;4.43;2.60;;;23.40;53.90;;;;;;5074736;28;20500;-62
2023/06/10 06:46:21;;;;;;;6.15;2.88;;;23.40;53.90;;;;;;5073826;28;20404;-62
2023/06/10 06:48:46;;;;;;;4.75;2.70;;;23.40;54.00;;;;;;5074406;28;20063;-62
2023/06/10 06:51:12;;;;;;;4.68;2.45;;;23.40;54.00;;;;;;5073057;28;20370;-62
2023/06/10 06:53:43;;;;;;;5.03;2.90;;;23.40;54.00;;;;;;5073651;28;20459;-62
2023/06/10 06:56:10;;;;;;;4.68;2.28;;;23.40;54.00;;;;;;5074070;28;20120;-62
2023/06/10 06:58:35;;;;;;;4.43;2.42;;;23.40;54.10;;;;;;5072948;28;20515;-62
2023/06/10 07:01:01;;;;;;;4.93;2.80;;;23.40;54.10;;;;;;5073189;28;20044;-62
2023/06/10 07:03:26;;;;;;;5.13;2.60;;;23.40;54.20;;;;;;5073893;28;20040;-62
2023/06/10 07:05:52;;;;;;;5.22;2.45;;;23.40;54.20;;;;;;5074249;28;20451;-62
2023/06/10 07:08:17;;;;;;;4.38;2.65;;;23.40;54.30;;;;;;5073084;28;20083;-62
2023/06/10 07:10:43;;;;;;;6.07;2.40;;;23.40;54.30;;;;;;5074061;28;20036;-62
2023/06/10 07:13:08;;;;;;;4.00;2.22;;;23.40;54.40;;;;;;5073731;28;20507;-62
2023/06/10 07:15:34;;;;;;;4.35;2.50;;;23.50;54.50;;;;;;5073145;28;20374;-62
2023/06/10 07:17:59;;;;;;;5.13;2.20;;;23.40;54.50;;;;;;5073654;28;20473;-62
2023/06/10 07:20:25;;;;;;;3.90;2.40;;;23.50;54.60;;;;;;5072644;28;20520;-62
2023/06/10 07:22:51;;;;;;;4.55;2.55;;;23.50;54.80;;;;;;5071930;28;20554;-62
2023/06/10 07:25:16;;;;;;;4.32;2.38;;;23.50;54.80;;;;;;5073521;28;20037;-60
2023/06/10 07:27:42;;;;;;;3.53;2.25;;;23.50;54.90;;;;;;5073496;28;20055;-60
2023/06/10 07:30:08;;;;;;;4.50;2.22;;;23.50;54.90;;;;;;5072367;28;20067;-62
2023/06/10 07:32:33;;;;;;;4.68;2.55;;;23.50;54.90;;;;;;5073692;28;20036;-62
2023/06/10 07:34:59;;;;;;;4.55;2.47;;;23.50;55.00;;;;;;5073340;28;20169;-62
2023/06/10 07:37:25;;;;;;;4.25;2.33;;;23.50;55.00;;;;;;5072404;28;20079;-62
2023/06/10 07:39:50;;;;;;;4.03;2.15;;;23.50;55.00;;;;;;5073508;28;20071;-60
2023/06/10 07:42:16;;;;;;;4.50;2.53;;;23.50;55.00;;;;;;5073091;28;20041;-60
2023/06/10 07:44:41;;;;;;;5.00;2.65;;;23.50;55.00;;;;;;5072403;28;20488;-60
2023/06/10 07:47:07;;;;;;;3.55;2.33;;;23.50;55.00;;;;;;5072732;28;20090;-60
2023/06/10 07:49:32;;;;;;;4.68;2.25;;;23.60;55.10;;;;;;5073378;28;20086;-60
2023/06/10 07:51:58;;;;;;;4.28;2.35;;;23.60;55.10;;;;;;5072360;28;20048;-60
2023/06/10 07:54:24;;;;;;;4.35;2.20;;;23.60;55.10;;;;;;5072987;28;20102;-62
2023/06/10 07:56:49;;;;;;;3.92;2.25;;;23.60;55.10;;;;;;5072178;28;20045;-62
2023/06/10 07:59:15;;;;;;;5.50;2.30;;;23.60;55.00;;;;;;5072859;28;20056;-62
2023/06/10 08:01:42;;;;;;;5.22;2.60;;;23.60;55.00;;;;;;5073017;28;20458;-62
2023/06/10 08:04:08;;;;;;;5.53;2.30;;;23.60;55.00;;;;;;5071794;28;20496;-62
2023/06/10 08:06:34;;;;;;;5.10;2.40;;;23.60;55.00;;;;;;5071588;28;20047;-62
2023/06/10 08:09:00;;;;;;;4.18;2.40;;;23.60;55.00;;;;;;5073116;28;20048;-62
2023/06/10 08:11:28;;;;;;;3.58;2.22;;;23.60;55.00;;;;;;5071648;28;20056;-62
2023/06/10 08:13:54;;;;;;;4.10;2.00;;;23.60;55.00;;;;;;5071707;28;20048;-62
2023/06/10 08:16:19;;;;;;;4.25;2.30;;;23.60;55.00;;;;;;5072737;28;20052;-62
2023/06/10 08:18:45;;;;;;;5.43;2.30;;;23.70;55.00;;;;;;5070829;28;20049;-62
2023/06/10 08:21:10;;;;;;;3.78;2.58;;;23.70;55.00;;;;;;5072774;28;20036;-62
2023/06/10 08:23:36;;;;;;;4.43;2.25;;;23.70;55.00;;;;;;5072992;28;20044;-61
2023/06/10 08:26:02;;;;;;;5.30;2.45;;;23.70;54.90;;;;;;5071765;28;20036;-62
2023/06/10 08:28:27;;;;;;;3.80;2.30;;;23.70;54.80;;;;;;5072165;28;20083;-62
2023/06/10 08:30:53;;;;;;;5.47;2.45;;;23.70;54.80;;;;;;5072607;28;20063;-62
2023/06/10 08:33:18;;;;;;;4.85;2.55;;;23.70;54.80;;;;;;5070226;28;20123;-62
2023/06/10 08:35:44;;;;;;;4.00;2.38;;;23.70;54.80;;;;;;5072716;28;20086;-62
2023/06/10 08:38:09;;;;;;;4.45;2.28;;;23.70;54.70;;;;;;5072522;28;20499;-62
2023/06/10 08:40:35;;;;;;;4.45;2.45;;;23.70;54.70;;;;;;5071926;28;20076;-62
2023/06/10 08:43:10;;;;;;;3.83;2.38;;;23.70;54.70;;;;;;5072319;28;20131;-62
2023/06/10 08:45:36;;;;;;;4.70;2.55;;;23.70;54.70;;;;;;5072512;28;20407;-62
2023/06/10 08:48:06;;;;;;;4.85;2.60;;;23.70;54.70;;;;;;5071858;28;20052;-62
2023/06/10 08:50:36;;;;;;;5.32;2.40;;;23.70;54.70;;;;;;5072529;28;20124;-62
2023/06/10 08:53:03;;;;;;;4.95;2.50;;;23.70;54.70;;;;;;5070522;28;20106;-62
2023/06/10 08:55:38;;;;;;;4.00;2.40;;;23.80;54.70;;;;;;5071006;28;20104;-62
2023/06/10 08:58:04;;;;;;;3.97;2.15;;;23.80;54.70;;;;;;5071555;28;20036;-62
2023/06/10 09:00:30;;;;;;;5.85;2.60;;;23.80;54.70;;;;;;5071298;28;20033;-62
2023/06/10 09:02:56;;;;;;;3.95;2.72;;;23.80;54.60;;;;;;5072486;28;20450;-62
2023/06/10 09:05:22;;;;;;;5.10;2.67;;;23.80;54.60;;;;;;5072009;28;20378;-62
2023/06/10 09:07:48;;;;;;;4.40;2.72;;;23.80;54.60;;;;;;5071794;28;20105;-62
2023/06/10 09:10:13;;;;;;;4.50;2.60;;;23.80;54.60;;;;;;5072257;28;20045;-62
2023/06/10 09:12:39;;;;;;;4.45;2.40;;;23.80;54.60;;;;;;5072098;28;20045;-62
2023/06/10 09:15:06;;;;;;;4.05;2.45;;;23.80;54.60;;;;;;5070584;28;20134;-62
2023/06/10 09:17:32;;;;;;;4.65;2.58;;;23.80;54.60;;;;;;5072459;28;20506;-62
2023/06/10 09:19:57;;;;;;;3.72;2.53;;;23.80;54.60;;;;;;5071001;28;20036;-62
2023/06/10 09:22:23;;;;;;;5.75;2.88;;;23.80;54.50;;;;;;5071407;28;20044;-62
2023/06/10 09:24:49;;;;;;;4.57;2.95;;;23.80;54.50;;;;;;5072456;28;20047;-62
2023/06/10 09:27:15;;;;;;;4.45;2.63;;;23.80;54.50;;;;;;5071482;28;20127;-62
2023/06/10 09:29:53;;;;;;;4.95;2.50;;;23.90;54.60;;;;;;5070448;28;20123;-62
2023/06/10 09:32:19;;;;;;;5.00;2.80;;;23.90;54.50;;;;;;5071642;28;20403;-62
2023/06/10 09:34:45;;;;;;;4.95;2.45;;;23.90;54.50;;;;;;5072013;28;20047;-62
2023/06/10 09:37:13;;;;;;;4.78;2.83;;;23.90;54.50;;;;;;5070891;28;20044;-62
2023/06/10 09:39:39;;;;;;;5.25;2.60;;;23.90;54.50;;;;;;5072271;28;20052;-62
2023/06/10 09:42:16;;;;;;;5.03;2.75;;;23.90;54.50;;;;;;5072894;28;20041;-62
2023/06/10 09:44:41;;;;;;;4.55;2.72;;;23.90;54.40;;;;;;5075654;28;20051;-62
2023/06/10 09:47:07;;;;;;;4.10;2.33;;;23.90;54.40;;;;;;5075195;28;20036;-62
2023/06/10 09:49:32;;;;;;;4.03;2.90;;;23.90;54.40;;;;;;5074858;28;20585;-62
2023/06/10 09:51:58;;;;;;;3.85;2.53;;;23.90;54.40;;;;;;5075659;28;20052;-62
2023/06/10 09:54:24;;;;;;;5.10;2.97;;;23.90;54.40;;;;;;5075264;28;20132;-62
2023/06/10 09:56:51;;;;;;;4.97;2.90;;;23.90;54.40;;;;;;5073455;28;20067;-63
2023/06/10 09:59:27;;;;;;;5.38;2.83;;;23.90;54.40;;;;;;5075334;28;20041;-62
2023/06/10 10:01:56;;;;;;;5.05;2.75;;;23.90;54.30;;;;;;5075365;28;20127;-62
2023/06/10 10:04:25;;;;;;;4.15;2.75;;;23.90;54.40;;;;;;5074177;28;20541;-62
2023/06/10 10:06:50;;;;;;;5.57;2.90;;;24.00;54.40;;;;;;5075463;28;20051;-62
2023/06/10 10:09:16;;;;;;;4.45;2.80;;;24.00;54.40;;;;;;5075056;28;20060;-62
2023/06/10 10:11:42;;;;;;;5.55;3.00;;;24.00;54.40;;;;;;5074289;28;20048;-62
2023/06/10 10:14:07;;;;;;;4.95;2.58;;;24.00;54.40;;;;;;5056836;28;20114;-62
2023/06/10 10:16:40;;;;;;;4.22;2.55;;;24.00;54.30;;;;;;5074846;28;20043;-62
2023/06/10 10:19:18;;;;;;;4.45;2.67;;;24.00;54.30;;;;;;5074009;28;20128;-62
2023/06/10 10:21:49;;;;;;;4.22;2.78;;;24.00;54.30;;;;;;5074084;28;20052;-62
2023/06/10 10:24:21;;;;;;;5.05;2.90;;;24.00;54.40;;;;;;5073277;28;20404;-62
2023/06/10 10:26:47;;;;;;;4.45;2.90;;;24.00;54.30;;;;;;5072502;28;20468;-62
2023/06/10 10:29:38;;;;;;;5.43;3.47;;;24.00;54.30;;;;;;5073522;28;20059;-62
2023/06/10 10:32:04;;;;;;;5.15;2.95;;;24.00;54.10;;;;;;5074027;28;20059;-62
2023/06/10 10:34:55;;;;;;;5.53;3.30;;;24.00;54.10;;;;;;5074534;28;20495;-62
2023/06/10 10:37:21;;;;;;;4.57;2.80;;;24.00;54.40;;;;;;5073561;28;20049;-62
2023/06/10 10:39:46;;;;;;;5.30;2.88;;;24.00;53.50;;;;;;5073954;28;20048;-62
2023/06/10 10:42:12;;;;;;;5.22;2.92;;;24.00;53.20;;;;;;5072844;28;20169;-62
2023/06/10 10:44:38;;;;;;;6.28;2.90;;;24.00;52.90;;;;;;5073220;28;20102;-62
2023/06/10 10:47:04;;;;;;;4.95;2.92;;;24.00;52.70;;;;;;5072627;28;20040;-62
2023/06/10 10:49:30;;;;;;;5.28;2.80;;;24.00;52.60;;;;;;5074046;28;20103;-62
2023/06/10 10:52:05;;;;;;;5.88;3.13;;;24.00;52.50;;;;;;5073362;28;20048;-62
2023/06/10 10:54:39;;;;;;;5.63;3.10;;;24.00;52.30;;;;;;5073161;28;20392;-62
2023/06/10 10:57:17;;;;;;;6.30;3.30;;;24.00;52.20;;;;;;5072976;28;20120;-62
2023/06/10 11:00:04;;;;;;;3.85;2.67;;;24.00;52.20;;;;;;5073721;28;20101;-62
2023/06/10 11:02:38;;;;;;;4.53;2.70;;;24.00;52.20;;;;;;5074156;28;20055;-62
2023/06/10 11:05:05;;;;;;;4.72;2.92;;;24.00;52.30;;;;;;5074308;28;20048;-62
2023/06/10 11:07:34;;;;;;;5.00;2.92;;;24.00;52.30;;;;;;5073571;28;20040;-62
2023/06/10 11:10:11;;;;;;;4.72;2.90;;;24.00;52.30;;;;;;5074001;28;20510;-62
2023/06/10 11:12:45;;;;;;;4.53;2.92;;;24.00;52.40;;;;;;5073754;28;20124;-62
2023/06/10 11:15:25;;;;;;;4.40;2.55;;;24.00;52.50;;;;;;5073050;28;20048;-62
2023/06/10 11:18:10;;;;;;;6.00;3.00;;;24.00;52.50;;;;;;5074157;28;20044;-62
2023/06/10 11:20:48;;;;;;;4.40;2.85;;;24.00;52.50;;;;;;5074033;28;20056;-62
2023/06/10 11:23:32;;;;;;;3.85;2.50;;;24.00;52.50;;;;;;5073654;28;20036;-62
2023/06/10 11:26:18;;;;;;;4.38;2.75;;;24.10;52.60;;;;;;5073698;28;20048;-62
2023/06/10 11:28:46;;;;;;;4.18;2.70;;;24.10;52.70;;;;;;5072678;28;20048;-62
2023/06/10 11:31:28;;;;;;;3.88;2.88;;;24.10;52.60;;;;;;5073164;28;20407;-62
2023/06/10 11:33:55;;;;;;;5.05;2.78;;;24.10;52.70;;;;;;5073269;28;20397;-62
2023/06/10 11:36:24;;;;;;;4.60;2.80;;;24.10;52.70;;;;;;5072602;28;20044;-62
2023/06/10 11:38:53;;;;;;;4.40;2.60;;;24.10;52.70;;;;;;5073639;28;20500;-62
2023/06/10 11:41:18;;;;;;;4.78;2.85;;;24.10;52.60;;;;;;5072045;28;20091;-62
2023/06/10 11:43:44;;;;;;;4.03;2.92;;;24.10;52.70;;;;;;5071358;28;20045;-62
2023/06/10 11:46:11;;;;;;;5.00;2.83;;;24.10;52.70;;;;;;5073163;28;20115;-62
2023/06/10 11:48:36;;;;;;;4.88;2.67;;;24.10;52.70;;;;;;5073468;28;20041;-62
2023/06/10 11:51:06;;;;;;;4.50;2.70;;;24.10;52.60;;;;;;5071444;28;20392;-62
2023/06/10 11:53:32;;;;;;;5.10;2.58;;;24.10;52.70;;;;;;5073363;28;20041;-62
2023/06/10 11:55:57;;;;;;;4.78;2.60;;;24.10;52.70;;;;;;5072573;28;20128;-62
2023/06/10 11:58:23;;;;;;;4.97;2.90;;;24.10;52.70;;;;;;5072785;28;20087;-62
2023/06/10 12:00:50;;;;;;;4.30;3.03;;;24.20;52.80;;;;;;5072928;28;20041;-62
2023/06/10 12:03:16;;;;;;;4.70;2.60;;;24.20;52.70;;;;;;5072247;28;20075;-62
2023/06/10 12:06:03;;;;;;;4.45;2.65;;;24.20;52.80;;;;;;5072387;28;20343;-62
2023/06/10 12:08:29;;;;;;;5.57;2.97;;;24.20;52.80;;;;;;5071793;28;20079;-62
2023/06/10 12:10:55;;;;;;;4.63;2.65;;;24.20;52.70;;;;;;5072306;28;20080;-62
2023/06/10 12:13:21;;;;;;;3.90;2.78;;;24.20;52.70;;;;;;5072386;28;20044;-62
2023/06/10 12:15:46;;;;;;;3.28;2.33;;;24.20;52.70;;;;;;5071607;28;20040;-62
2023/06/10 12:18:22;;;;;;;4.80;2.70;;;24.20;52.80;;;;;;5072089;28;20047;-62
2023/06/10 12:20:48;;;;;;;5.32;2.65;;;24.20;52.90;;;;;;5073079;28;20502;-62
2023/06/10 12:23:14;;;;;;;4.88;2.63;;;24.20;52.90;;;;;;5072543;28;20093;-62
2023/06/10 12:25:39;;;;;;;4.10;2.78;;;24.20;52.90;;;;;;5071881;28;20033;-62
2023/06/10 12:28:06;;;;;;;3.40;2.15;;;24.20;52.80;;;;;;5071204;28;20056;-62
2023/06/10 12:30:32;;;;;;;4.75;2.50;;;24.20;52.80;;;;;;5072887;28;20033;-62
2023/06/10 12:32:57;;;;;;;4.13;2.63;;;24.20;52.80;;;;;;5071899;28;20063;-62
2023/06/10 12:35:24;;;;;;;4.45;2.80;;;24.20;52.80;;;;;;5072347;28;20128;-62
2023/06/10 12:38:01;;;;;;;3.55;2.35;;;24.20;52.80;;;;;;5072898;28;20167;-62
2023/06/10 12:40:28;;;;;;;5.18;2.70;;;24.20;52.80;;;;;;5071872;28;20048;-62
2023/06/10 12:42:54;;;;;;;4.82;2.80;;;24.20;52.70;;;;;;5072858;28;20049;-62
2023/06/10 12:45:30;;;;;;;4.47;2.63;;;24.20;52.70;;;;;;5070343;28;20041;-62
2023/06/10 12:48:12;;;;;;;4.00;2.35;;;24.20;52.80;;;;;;5072781;28;20170;-62